createdAt,value
2023-01-26T00:00:11.031Z,102192.50
2023-01-26T00:02:39.398Z,102185.34
2023-01-26T00:05:08.768Z,102178.16
2023-01-26T00:07:37.053Z,102166.41
2023-01-26T00:10:07.405Z,102160.03
2023-01-26T00:12:35.965Z,102145.84
2023-01-26T00:15:05.024Z,102144.31
2023-01-26T00:17:33.687Z,102147.00
2023-01-26T00:20:02.273Z,102143.00
2023-01-26T00:22:30.840Z,102148.16
2023-01-26T00:24:59.436Z,102145.88
2023-01-26T00:27:29.378Z,102135.56
2023-01-26T00:29:57.956Z,102130.59
2023-01-26T00:32:26.505Z,102139.56
2023-01-26T00:34:55.076Z,102138.19
2023-01-26T00:37:23.635Z,102128.03
2023-01-26T00:39:52.191Z,102117.81
2023-01-26T00:42:21.829Z,102114.97
2023-01-26T00:44:52.476Z,102111.09
2023-01-26T00:47:21.351Z,102107.38
2023-01-26T00:49:49.950Z,102114.84
2023-01-26T00:52:18.554Z,102109.75
2023-01-26T00:54:47.104Z,102110.47
2023-01-26T00:57:15.705Z,102110.78
2023-01-26T00:59:44.276Z,102099.78
2023-01-26T01:02:14.258Z,102114.34
2023-01-26T01:04:42.864Z,102111.72
2023-01-26T01:07:11.464Z,102112.38
2023-01-26T01:09:40.044Z,102117.66
2023-01-26T01:12:09.098Z,102106.06
2023-01-26T01:14:37.683Z,102111.00
2023-01-26T01:17:06.267Z,102093.41
2023-01-26T01:19:36.190Z,102097.34
2023-01-26T01:22:06.433Z,102105.72
2023-01-26T01:24:35.498Z,102100.13
2023-01-26T01:27:04.296Z,102095.75
2023-01-26T01:29:32.835Z,102083.63
2023-01-26T01:32:01.461Z,102092.34
2023-01-26T01:34:30.317Z,102083.25
2023-01-26T01:37:00.272Z,102083.97
2023-01-26T01:39:28.941Z,102084.06
2023-01-26T01:41:57.545Z,102084.50
2023-01-26T01:44:27.520Z,102083.00
2023-01-26T01:46:59.769Z,102096.44
2023-01-26T01:49:31.339Z,102092.25
2023-01-26T01:52:06.791Z,102105.41
2023-01-26T01:54:39.152Z,102085.72
2023-01-26T01:57:15.592Z,102093.41
2023-01-26T01:59:50.106Z,102088.56
2023-01-26T02:02:19.065Z,102072.50
2023-01-26T02:08:40.642Z,102068.44
2023-01-26T02:11:12.952Z,102073.53
2023-01-26T02:13:43.284Z,102067.13
2023-01-26T02:16:12.341Z,102058.72
2023-01-26T02:18:40.937Z,102062.94
2023-01-26T02:21:12.624Z,102061.47
2023-01-26T02:23:57.986Z,102061.47
2023-01-26T02:26:30.445Z,102062.97
2023-01-26T02:28:59.969Z,102058.16
2023-01-26T02:31:29.265Z,102054.13
2023-01-26T02:33:57.880Z,102048.41
2023-01-26T02:36:28.397Z,102050.66
2023-01-26T02:39:20.686Z,102052.84
2023-01-26T02:42:11.407Z,102045.88
2023-01-26T02:44:40.918Z,102045.09
2023-01-26T02:47:17.735Z,102048.69
2023-01-26T02:49:50.412Z,102051.13
2023-01-26T02:52:21.554Z,102052.00
2023-01-26T02:55:07.648Z,102044.53
2023-01-26T02:57:37.591Z,102051.69
2023-01-26T03:00:08.992Z,102049.09
2023-01-26T03:02:38.075Z,102038.47
2023-01-26T03:05:07.155Z,102035.41
2023-01-26T03:07:35.829Z,102028.31
2023-01-26T03:10:04.767Z,102023.06
2023-01-26T03:12:33.436Z,102029.56
2023-01-26T03:15:21.442Z,102029.69
2023-01-26T03:17:50.053Z,102027.69
2023-01-26T03:20:36.290Z,102021.22
2023-01-26T03:23:22.131Z,102022.59
2023-01-26T03:26:08.288Z,102025.00
2023-01-26T03:28:36.838Z,102031.69
2023-01-26T03:31:08.459Z,102034.22
2023-01-26T03:33:37.049Z,102030.84
2023-01-26T03:36:06.365Z,102036.66
2023-01-26T03:38:35.140Z,102041.59
2023-01-26T03:41:21.095Z,102031.31
2023-01-26T03:44:06.807Z,102033.19
2023-01-26T03:46:54.457Z,102036.31
2023-01-26T03:49:40.670Z,102036.97
2023-01-26T03:52:26.583Z,102034.91
2023-01-26T03:55:12.428Z,102030.31
2023-01-26T03:57:41.076Z,102033.53
2023-01-26T04:00:11.278Z,102025.13
2023-01-26T04:02:58.821Z,102014.03
2023-01-26T04:05:45.071Z,102021.72
2023-01-26T04:08:22.967Z,102020.03
2023-01-26T04:10:52.644Z,102019.84
2023-01-26T04:13:39.509Z,102018.94
2023-01-26T04:16:26.672Z,102018.47
2023-01-26T04:19:14.242Z,102011.91
2023-01-26T04:24:22.388Z,101998.88
2023-01-26T04:26:51.185Z,102007.63
2023-01-26T04:29:19.820Z,102008.47
2023-01-26T04:31:48.463Z,102013.94
2023-01-26T04:34:18.557Z,102006.50
2023-01-26T04:36:47.136Z,102007.63
2023-01-26T04:39:15.751Z,102011.91
2023-01-26T04:41:44.299Z,102014.00
2023-01-26T04:44:13.119Z,102007.84
2023-01-26T04:46:41.776Z,102009.22
2023-01-26T04:49:10.572Z,102010.41
2023-01-26T04:51:40.510Z,102010.41
2023-01-26T04:54:09.340Z,102007.88
2023-01-26T04:56:38.296Z,102011.13
2023-01-26T04:59:08.734Z,102012.50
2023-01-26T05:01:37.532Z,102021.03
2023-01-26T05:04:07.632Z,102022.72
2023-01-26T05:06:36.280Z,102017.78
2023-01-26T05:09:06.683Z,102021.03
2023-01-26T05:11:35.381Z,102010.41
2023-01-26T05:14:04.111Z,102007.00
2023-01-26T05:16:32.752Z,102011.63
2023-01-26T05:19:01.398Z,102005.47
2023-01-26T05:21:29.977Z,102001.69
2023-01-26T05:23:58.554Z,102004.78
2023-01-26T05:26:28.568Z,102010.59
2023-01-26T05:28:57.143Z,102010.59
2023-01-26T05:31:25.804Z,102009.25
2023-01-26T05:33:54.443Z,102008.25
2023-01-26T05:36:23.041Z,102016.44
2023-01-26T05:38:51.650Z,102013.72
2023-01-26T05:41:20.242Z,102015.88
2023-01-26T05:43:50.172Z,102017.44
2023-01-26T05:46:18.774Z,102016.59
2023-01-26T05:48:47.323Z,102022.91
2023-01-26T05:51:15.907Z,102020.84
2023-01-26T05:53:44.461Z,102023.56
2023-01-26T05:56:13.052Z,102016.72
2023-01-26T05:58:41.589Z,102021.38
2023-01-26T06:01:11.599Z,102018.47
2023-01-26T06:03:40.167Z,102018.16
2023-01-26T06:06:09.110Z,102019.50
2023-01-26T06:08:37.722Z,102011.78
2023-01-26T06:11:06.559Z,102016.78
2023-01-26T06:13:35.104Z,102013.84
2023-01-26T06:16:03.988Z,102019.19
2023-01-26T06:18:33.911Z,102019.84
2023-01-26T06:21:02.891Z,102027.22
2023-01-26T06:23:32.065Z,102022.09
2023-01-26T06:26:01.549Z,102013.72
2023-01-26T06:28:31.608Z,102016.59
2023-01-26T06:31:03.930Z,102022.91
2023-01-26T06:33:36.251Z,102016.97
2023-01-26T06:36:05.265Z,102021.56
2023-01-26T06:38:34.310Z,102027.22
2023-01-26T06:41:03.446Z,102028.91
2023-01-26T06:43:32.409Z,102027.38
2023-01-26T06:46:02.709Z,102023.63
2023-01-26T06:48:34.913Z,102025.00
2023-01-26T06:51:27.204Z,102030.66
2023-01-26T06:53:56.853Z,102031.50
2023-01-26T06:56:28.042Z,102028.91
2023-01-26T06:58:56.647Z,102034.06
2023-01-26T07:01:27.631Z,102032.34
2023-01-26T07:03:57.550Z,102043.44
2023-01-26T07:06:26.161Z,102029.75
2023-01-26T07:08:54.733Z,102034.22
2023-01-26T07:11:25.361Z,102035.59
2023-01-26T07:13:53.961Z,102034.22
2023-01-26T07:16:22.570Z,102033.19
2023-01-26T07:18:51.154Z,102029.28
2023-01-26T07:21:23.050Z,102032.69
2023-01-26T07:23:53.334Z,102034.44
2023-01-26T07:26:22.369Z,102032.34
2023-01-26T07:28:50.964Z,102027.41
2023-01-26T07:31:19.697Z,102030.66
2023-01-26T07:33:48.304Z,102033.91
2023-01-26T07:36:16.898Z,102033.41
2023-01-26T07:38:47.159Z,102038.34
2023-01-26T07:41:15.768Z,102040.94
2023-01-26T07:43:44.555Z,102041.78
2023-01-26T07:46:13.339Z,102040.09
2023-01-26T07:48:41.948Z,102030.19
2023-01-26T07:51:11.316Z,102033.59
2023-01-26T07:53:42.266Z,102033.09
2023-01-26T07:56:14.466Z,102035.97
2023-01-26T07:58:43.323Z,102034.81
2023-01-26T08:01:14.294Z,102040.28
2023-01-26T08:03:45.537Z,102039.06
2023-01-26T08:06:16.090Z,102034.97
2023-01-26T08:08:45.080Z,102038.56
2023-01-26T08:11:15.001Z,102030.38
2023-01-26T08:13:43.551Z,102036.50
2023-01-26T08:16:13.390Z,102047.31
2023-01-26T08:18:43.296Z,102044.72
2023-01-26T08:21:12.719Z,102048.34
2023-01-26T08:23:41.466Z,102047.13
2023-01-26T08:26:12.196Z,102053.81
2023-01-26T08:28:42.487Z,102050.19
2023-01-26T08:31:13.724Z,102061.31
2023-01-26T08:33:43.568Z,102066.81
2023-01-26T08:36:15.009Z,102062.84
2023-01-26T08:38:44.431Z,102066.09
2023-01-26T08:41:13.444Z,102054.47
2023-01-26T08:43:43.419Z,102056.22
2023-01-26T08:46:12.513Z,102055.00
2023-01-26T08:48:41.168Z,102058.97
2023-01-26T08:51:10.210Z,102058.44
2023-01-26T08:53:39.344Z,102063.22
2023-01-26T08:56:11.412Z,102060.31
2023-01-26T08:58:40.289Z,102064.94
2023-01-26T09:01:12.506Z,102066.31
2023-01-26T09:03:41.526Z,102061.50
2023-01-26T09:06:11.671Z,102059.28
2023-01-26T09:08:40.280Z,102067.66
2023-01-26T09:11:09.575Z,102071.09
2023-01-26T09:13:39.183Z,102068.78
2023-01-26T09:16:13.875Z,102071.25
2023-01-26T09:18:42.474Z,102081.47
2023-01-26T09:21:12.519Z,102087.28
2023-01-26T09:23:41.152Z,102080.28
2023-01-26T09:26:09.791Z,102081.47
2023-01-26T09:28:38.679Z,102079.13
2023-01-26T09:31:08.664Z,102078.88
2023-01-26T09:33:38.936Z,102078.75
2023-01-26T09:36:09.527Z,102088.34
2023-01-26T09:38:38.821Z,102082.50
2023-01-26T09:41:19.345Z,102086.28
2023-01-26T09:43:51.681Z,102083.56
2023-01-26T09:46:24.878Z,102084.44
2023-01-26T09:49:07.517Z,102078.13
2023-01-26T09:51:38.835Z,102076.91
2023-01-26T09:54:21.289Z,102083.94
2023-01-26T09:56:49.855Z,102081.84
2023-01-26T09:59:31.989Z,102081.72
2023-01-26T10:02:06.841Z,102077.75
2023-01-26T10:04:39.242Z,102075.72
2023-01-26T10:07:12.731Z,102083.09
2023-01-26T10:09:45.998Z,102079.50
2023-01-26T10:12:20.036Z,102081.72
2023-01-26T10:14:55.374Z,102076.22
2023-01-26T10:17:31.837Z,102077.78
2023-01-26T10:20:07.517Z,102074.88
2023-01-26T10:22:44.694Z,102071.38
2023-01-26T10:25:18.965Z,102070.91
2023-01-26T10:27:47.946Z,102063.41
2023-01-26T10:30:19.399Z,102060.31
2023-01-26T10:32:52.467Z,102060.81
2023-01-26T10:35:24.120Z,102056.03
2023-01-26T10:37:53.568Z,102052.81
2023-01-26T10:40:22.719Z,102047.34
2023-01-26T10:42:59.979Z,102046.34
2023-01-26T10:45:31.763Z,102040.88
2023-01-26T10:48:19.523Z,102029.34
2023-01-26T10:50:49.891Z,102036.25
2023-01-26T10:53:23.615Z,102035.91
2023-01-26T10:56:13.386Z,102044.13
2023-01-26T10:58:51.178Z,102048.56
2023-01-26T11:01:27.333Z,102043.94
2023-01-26T11:04:05.195Z,102041.00
2023-01-26T11:06:35.675Z,102042.88
2023-01-26T11:09:19.180Z,102040.50
2023-01-26T11:12:04.729Z,102030.22
2023-01-26T11:14:34.821Z,102033.44
2023-01-26T11:17:22.685Z,102040.31
2023-01-26T11:20:04.687Z,102044.41
2023-01-26T11:22:43.449Z,102036.03
2023-01-26T11:25:23.583Z,102037.38
2023-01-26T11:28:05.867Z,102044.59
2023-01-26T11:30:55.784Z,102043.91
2023-01-26T11:33:31.406Z,102033.78
2023-01-26T11:36:08.409Z,102032.78
2023-01-26T11:38:42.069Z,102043.03
2023-01-26T11:41:33.348Z,102035.72
2023-01-26T11:44:39.935Z,102038.47
2023-01-26T11:47:40.762Z,102033.84
2023-01-26T11:50:24.729Z,102024.97
2023-01-26T11:53:10.377Z,102014.84
2023-01-26T11:55:57.662Z,102016.03
2023-01-26T11:58:33.308Z,102012.44
2023-01-26T12:01:04.274Z,102015.19
2023-01-26T12:03:40.941Z,102006.97
2023-01-26T12:06:18.738Z,102008.69
2023-01-26T12:08:52.724Z,102006.78
2023-01-26T12:11:26.707Z,102006.28
2023-01-26T12:14:05.369Z,102005.09
2023-01-26T12:16:41.677Z,102001.81
2023-01-26T12:19:32.044Z,101995.66
2023-01-26T12:22:09.946Z,101995.34
2023-01-26T12:27:43.126Z,101986.09
2023-01-26T12:30:25.658Z,101978.88
2023-01-26T12:32:54.561Z,101977.16
2023-01-26T12:35:36.535Z,101973.25
2023-01-26T12:38:17.929Z,101963.97
2023-01-26T12:41:02.361Z,101960.91
2023-01-26T12:43:44.683Z,101957.97
2023-01-26T12:46:15.158Z,101962.78
2023-01-26T12:48:48.011Z,101962.09
2023-01-26T12:51:24.030Z,101961.25
2023-01-26T12:53:59.146Z,101962.78
2023-01-26T12:56:32.735Z,101958.16
2023-01-26T12:59:10.653Z,101957.00
2023-01-26T13:01:42.471Z,101960.06
2023-01-26T13:04:13.068Z,101965.03
2023-01-26T13:06:42.033Z,101959.38
2023-01-26T13:09:26.420Z,101957.31
2023-01-26T13:11:55.992Z,101962.44
2023-01-26T13:14:34.859Z,101944.47
2023-01-26T13:17:36.621Z,101941.03
2023-01-26T13:20:24.909Z,101951.69
2023-01-26T13:22:53.857Z,101946.00
2023-01-26T13:25:34.821Z,101945.31
2023-01-26T13:28:05.192Z,101952.69
2023-01-26T13:30:49.628Z,101954.09
2023-01-26T13:33:24.584Z,101948.72
2023-01-26T13:35:56.248Z,101950.97
2023-01-26T13:38:34.334Z,101948.41
2023-01-26T13:41:08.431Z,101947.56
2023-01-26T13:43:42.973Z,101951.84
2023-01-26T13:46:23.590Z,101942.94
2023-01-26T13:48:53.503Z,101934.03
2023-01-26T13:51:24.959Z,101939.66
2023-01-26T13:54:03.579Z,101938.13
2023-01-26T13:56:34.263Z,101937.28
2023-01-26T13:59:12.007Z,101936.25
2023-01-26T14:01:50.808Z,101937.25
2023-01-26T14:04:22.197Z,101942.53
2023-01-26T14:06:56.375Z,101934.84
2023-01-26T14:09:27.065Z,101943.41
2023-01-26T14:12:01.965Z,101942.72
2023-01-26T14:14:33.963Z,101936.38
2023-01-26T14:17:08.570Z,101942.84
2023-01-26T14:19:42.316Z,101930.03
2023-01-26T14:22:14.951Z,101935.69
2023-01-26T14:24:44.229Z,101934.97
2023-01-26T14:27:31.593Z,101933.38
2023-01-26T14:30:01.004Z,101937.88
2023-01-26T14:32:32.193Z,101932.25
2023-01-26T14:35:01.752Z,101937.06
2023-01-26T14:37:30.611Z,101931.66
2023-01-26T14:40:20.901Z,101937.63
2023-01-26T14:42:50.934Z,101942.44
2023-01-26T14:45:22.549Z,101939.50
2023-01-26T14:47:54.859Z,101940.19
2023-01-26T14:50:28.226Z,101944.13
2023-01-26T14:52:57.154Z,101945.78
2023-01-26T14:55:29.182Z,101943.63
2023-01-26T14:58:02.208Z,101950.28
2023-01-26T15:00:33.978Z,101949.44
2023-01-26T15:03:07.381Z,101954.25
2023-01-26T15:05:38.774Z,101949.06
2023-01-26T15:08:21.150Z,101958.34
2023-01-26T15:11:18.226Z,101957.63
2023-01-26T15:13:48.923Z,101955.91
2023-01-26T15:16:19.156Z,101961.19
2023-01-26T15:19:00.426Z,101946.44
2023-01-26T15:21:34.805Z,101956.44
2023-01-26T15:24:04.721Z,101960.22
2023-01-26T15:26:35.372Z,101953.19
2023-01-26T15:29:07.709Z,101945.44
2023-01-26T15:31:38.380Z,101937.56
2023-01-26T15:34:28.652Z,101934.13
2023-01-26T15:36:58.107Z,101928.16
2023-01-26T15:39:26.978Z,101944.94
2023-01-26T15:42:13.528Z,101935.69
2023-01-26T15:44:42.652Z,101938.59
2023-01-26T15:47:12.246Z,101937.03
2023-01-26T15:49:42.776Z,101942.19
2023-01-26T15:52:14.703Z,101952.66
2023-01-26T15:54:43.520Z,101946.28
2023-01-26T15:57:12.443Z,101941.66
2023-01-26T15:59:41.434Z,101945.25
2023-01-26T16:02:15.696Z,101942.81
2023-01-26T16:04:46.228Z,101934.78
2023-01-26T16:07:16.524Z,101940.78
2023-01-26T16:09:45.684Z,101939.06
2023-01-26T16:12:31.175Z,101938.03
2023-01-26T16:15:00.699Z,101939.75
2023-01-26T16:17:29.751Z,101953.28
2023-01-26T16:20:00.342Z,101950.53
2023-01-26T16:22:28.888Z,101946.59
2023-01-26T16:24:57.506Z,101950.03
2023-01-26T16:27:26.038Z,101946.25
2023-01-26T16:29:54.584Z,101952.56
2023-01-26T16:32:29.668Z,101951.03
2023-01-26T16:34:59.933Z,101951.19
2023-01-26T16:37:28.480Z,101945.03
2023-01-26T16:39:57.079Z,101950.84
2023-01-26T16:42:25.746Z,101945.34
2023-01-26T16:44:54.303Z,101942.81
2023-01-26T16:47:22.893Z,101944.50
2023-01-26T16:49:51.449Z,101945.69
2023-01-26T16:52:21.397Z,101948.44
2023-01-26T16:54:50.143Z,101953.56
2023-01-26T16:57:18.732Z,101945.69
2023-01-26T16:59:47.305Z,101943.81
2023-01-26T17:02:28.061Z,101933.69
2023-01-26T17:04:56.657Z,101939.84
2023-01-26T17:07:26.683Z,101938.97
2023-01-26T17:09:55.295Z,101946.00
2023-01-26T17:12:23.918Z,101944.28
2023-01-26T17:14:52.713Z,101937.59
2023-01-26T17:17:21.328Z,101942.41
2023-01-26T17:19:49.870Z,101944.94
2023-01-26T17:22:18.689Z,101945.34
2023-01-26T17:24:48.813Z,101942.59
2023-01-26T17:27:17.773Z,101944.28
2023-01-26T17:29:46.513Z,101939.66
2023-01-26T17:32:15.500Z,101938.63
2023-01-26T17:34:44.071Z,101939.13
2023-01-26T17:37:12.642Z,101940.84
2023-01-26T17:39:41.185Z,101949.72
2023-01-26T17:42:11.122Z,101953.72
2023-01-26T17:44:40.124Z,101949.06
2023-01-26T17:47:09.409Z,101944.44
2023-01-26T17:49:38.040Z,101947.84
2023-01-26T17:52:08.241Z,101948.38
2023-01-26T17:54:36.807Z,101941.50
2023-01-26T17:57:05.482Z,101941.34
2023-01-26T17:59:35.416Z,101944.09
2023-01-26T18:02:04.012Z,101946.47
2023-01-26T18:04:33.217Z,101947.50
2023-01-26T18:07:02.802Z,101950.06
2023-01-26T18:09:31.401Z,101940.63
2023-01-26T18:11:59.985Z,101944.88
2023-01-26T18:14:29.273Z,101953.31
2023-01-26T18:16:59.190Z,101948.66
2023-01-26T18:19:27.819Z,101949.34
2023-01-26T18:21:56.423Z,101943.88
2023-01-26T18:24:25.108Z,101943.69
2023-01-26T18:26:53.711Z,101952.47
2023-01-26T18:29:22.269Z,101951.22
2023-01-26T18:31:51.278Z,101948.47
2023-01-26T18:34:21.298Z,101948.66
2023-01-26T18:36:49.893Z,101948.81
2023-01-26T18:39:18.653Z,101949.84
2023-01-26T18:41:47.309Z,101938.88
2023-01-26T18:44:15.891Z,101950.88
2023-01-26T18:46:44.456Z,101945.38
2023-01-26T18:49:12.999Z,101939.91
2023-01-26T18:51:47.940Z,101942.28
2023-01-26T18:54:17.445Z,101948.81
2023-01-26T18:56:46.059Z,101945.88
2023-01-26T18:59:14.997Z,101940.03
2023-01-26T19:01:44.320Z,101939.03
2023-01-26T19:04:12.894Z,101942.13
2023-01-26T19:06:42.843Z,101940.03
2023-01-26T19:09:11.779Z,101938.66
2023-01-26T19:11:40.924Z,101943.47
2023-01-26T19:14:10.125Z,101942.13
2023-01-26T19:16:38.744Z,101937.13
2023-01-26T19:19:07.397Z,101933.19
2023-01-26T19:21:35.993Z,101941.22
2023-01-26T19:24:07.196Z,101943.09
2023-01-26T19:26:36.035Z,101940.25
2023-01-26T19:29:05.358Z,101941.28
2023-01-26T19:31:35.509Z,101939.19
2023-01-26T19:34:06.224Z,101930.59
2023-01-26T19:36:37.018Z,101929.75
2023-01-26T19:39:07.898Z,101933.19
2023-01-26T19:41:38.885Z,101938.47
2023-01-26T19:44:07.685Z,101939.16
2023-01-26T19:46:36.321Z,101946.34
2023-01-26T19:49:07.273Z,101952.88
2023-01-26T19:51:35.866Z,101951.81
2023-01-26T19:54:05.882Z,101946.34
2023-01-26T19:56:36.890Z,101947.03
2023-01-26T19:59:07.195Z,101946.34
2023-01-26T20:01:36.225Z,101948.03
2023-01-26T20:04:07.288Z,101949.00
2023-01-26T20:06:37.441Z,101944.66
2023-01-26T20:09:08.718Z,101939.88
2023-01-26T20:11:37.584Z,101945.66
2023-01-26T20:14:09.013Z,101941.16
2023-01-26T20:16:38.180Z,101941.31
2023-01-26T20:19:06.920Z,101941.91
2023-01-26T20:21:36.218Z,101940.16
2023-01-26T20:24:06.991Z,101942.91
2023-01-26T20:26:37.087Z,101935.91
2023-01-26T20:29:05.937Z,101949.00
2023-01-26T20:31:34.919Z,101940.56
2023-01-26T20:34:03.646Z,101939.47
2023-01-26T20:36:34.345Z,101938.13
2023-01-26T20:39:03.542Z,101942.19
2023-01-26T20:41:34.002Z,101945.66
2023-01-26T20:44:04.697Z,101946.69
2023-01-26T20:46:36.036Z,101944.38
2023-01-26T20:49:05.219Z,101941.00
2023-01-26T20:51:36.023Z,101943.13
2023-01-26T20:54:06.488Z,101946.91
2023-01-26T20:56:36.976Z,101941.22
2023-01-26T20:59:07.522Z,101941.66
2023-01-26T21:01:36.618Z,101938.28
2023-01-26T21:04:06.438Z,101944.28
2023-01-26T21:06:35.460Z,101936.63
2023-01-26T21:09:05.414Z,101939.31
2023-01-26T21:11:36.094Z,101931.06
2023-01-26T21:14:05.035Z,101935.00
2023-01-26T21:16:35.683Z,101934.44
2023-01-26T21:19:04.393Z,101929.66
2023-01-26T21:21:33.206Z,101945.28
2023-01-26T21:24:01.876Z,101943.25
2023-01-26T21:26:30.592Z,101938.19
2023-01-26T21:29:01.331Z,101927.63
2023-01-26T21:31:31.684Z,101938.16
2023-01-26T21:34:01.553Z,101936.50
2023-01-26T21:36:31.835Z,101931.88
2023-01-26T21:39:01.402Z,101936.97
2023-01-26T21:41:49.168Z,101937.75
2023-01-26T21:44:20.617Z,101934.88
2023-01-26T21:46:51.488Z,101930.38
2023-01-26T21:49:21.250Z,101925.31
2023-01-26T21:52:07.367Z,101927.19
2023-01-26T21:54:36.606Z,101918.56
2023-01-26T21:57:27.735Z,101925.22
2023-01-26T21:59:57.106Z,101928.56
2023-01-26T22:02:25.704Z,101926.41
2023-01-26T22:04:54.343Z,101931.34
2023-01-26T22:07:22.951Z,101937.69
2023-01-26T22:09:51.527Z,101925.75
2023-01-26T22:12:20.101Z,101934.84
2023-01-26T22:14:48.683Z,101932.47
2023-01-26T22:17:18.853Z,101924.78
2023-01-26T22:19:47.461Z,101932.09
2023-01-26T22:24:55.286Z,101934.19
2023-01-26T22:27:23.871Z,101924.66
2023-01-26T22:29:52.474Z,101924.81
2023-01-26T22:32:22.358Z,101925.25
2023-01-26T22:34:50.994Z,101923.59
2023-01-26T22:37:19.555Z,101929.03
2023-01-26T22:39:49.181Z,101927.31
2023-01-26T22:42:19.127Z,101931.66
2023-01-26T22:44:47.710Z,101934.81
2023-01-26T22:47:16.301Z,101927.81
2023-01-26T22:49:46.373Z,101930.28
2023-01-26T22:52:14.937Z,101925.16
2023-01-26T22:54:43.499Z,101926.91
2023-01-26T22:57:12.035Z,101928.16
2023-01-26T22:59:40.633Z,101933.09
2023-01-26T23:02:09.230Z,101922.31
2023-01-26T23:04:38.062Z,101926.38
2023-01-26T23:07:08.035Z,101932.44
2023-01-26T23:09:36.665Z,101932.97
2023-01-26T23:12:05.436Z,101934.09
2023-01-26T23:14:35.168Z,101940.06
2023-01-26T23:17:04.805Z,101935.22
2023-01-26T23:19:33.681Z,101935.94
2023-01-26T23:22:02.229Z,101938.81
2023-01-26T23:24:32.176Z,101939.19
2023-01-26T23:27:00.729Z,101938.97
2023-01-26T23:29:29.347Z,101934.50
2023-01-26T23:31:58.284Z,101934.72
2023-01-26T23:34:27.071Z,101928.69
2023-01-26T23:36:55.662Z,101939.53
2023-01-26T23:39:24.224Z,101939.41
2023-01-26T23:41:54.123Z,101937.69
2023-01-26T23:44:22.739Z,101936.06
2023-01-26T23:46:51.503Z,101935.84
2023-01-26T23:49:20.132Z,101924.97
2023-01-26T23:51:48.683Z,101929.56
2023-01-26T23:54:17.657Z,101927.78
2023-01-26T23:56:46.309Z,101923.00
2023-01-26T23:59:16.238Z,101934.09
